| time (UTC) | temp F | wind direction | speed MPH | gust MPH | rain 1hr in | rain 24hr in | rain mn in | humidity % | barometer mb |
| 20260504231540 | 80 | 145 | 6.0 | 12.0 | 0.01 | 0.20 | 0.20 | 49 | 1002.6 |
| 20260504230030 | 80 | 214 | 4.0 | 11.0 | 0.01 | 0.20 | 0.20 | 49 | 1002.8 |
| 20260504224536 | 80 | 168 | 5.0 | 10.0 | 0.00 | 0.19 | 0.19 | 48 | 1002.8 |
| 20260504223107 | 79 | 128 | 6.0 | 11.0 | 0.00 | 0.19 | 0.19 | 49 | 1002.8 |
| 20260504223031 | 79 | 128 | 6.0 | 11.0 | 0.00 | 0.19 | 0.19 | 49 | 1002.8 |
| 20260504221530 | 78 | 137 | 4.0 | 12.0 | 0.00 | 0.19 | 0.19 | 55 | 1002.8 |
| 20260504220034 | 77 | 185 | 5.0 | 11.0 | 0.00 | 0.19 | 0.19 | 59 | 1002.9 |
| 20260504214554 | 75 | 168 | 4.0 | 8.0 | 0.00 | 0.19 | 0.19 | 66 | 1002.9 |
| 20260504213030 | 73 | 153 | 4.0 | 8.0 | 0.00 | 0.19 | 0.19 | 71 | 1003.1 |
| 20260504211532 | 71 | 149 | 4.0 | 6.0 | 0.06 | 0.19 | 0.19 | 75 | 1003.5 |
| 20260504210039 | 69 | 157 | 3.0 | 5.0 | 0.14 | 0.19 | 0.19 | 82 | 1003.6 |
| 20260504204528 | 66 | 146 | 3.0 | 8.0 | 0.19 | 0.19 | 0.19 | 86 | 1003.5 |
| 20260504203033 | 65 | 170 | 2.0 | 10.0 | 0.19 | 0.19 | 0.19 | 83 | 1003.8 |
| 20260504201530 | 66 | 178 | 3.0 | 13.0 | 0.09 | 0.09 | 0.09 | 82 | 1005.5 |
| 20260504200028 | 66 | 199 | 1.0 | 20.0 | 0.05 | 0.05 | 0.05 | 79 | 1005.6 |
| 20260504194616 | 71 | 296 | 12.0 | 21.0 | 0.00 | 0.00 | 0.00 | 66 | 1006.4 |
| 20260504194543 | 71 | 296 | 12.0 | 21.0 | 0.00 | 0.00 | 0.00 | 66 | 1006.4 |
| 20260504193031 | 73 | 76 | 1.0 | 2.0 | 0.00 | 0.00 | 0.00 | 60 | 1004.7 |
| 20260504191535 | 73 | 82 | 1.0 | 2.0 | 0.00 | 0.00 | 0.00 | 60 | 1005.0 |
| 20260504190033 | 74 | 146 | 0.0 | 6.0 | 0.00 | 0.00 | 0.00 | 58 | 1004.9 |
| 20260504184537 | 75 | 186 | 2.0 | 8.0 | 0.00 | 0.00 | 0.00 | 56 | 1005.0 |
| 20260504183115 | 75 | 0 | 1.0 | 10.0 | 0.00 | 0.00 | 0.00 | 58 | 1005.4 |
| 20260504183030 | 75 | 0 | 1.0 | 10.0 | 0.00 | 0.00 | 0.00 | 58 | 1005.4 |
| 20260504181528 | 75 | 159 | 4.0 | 9.0 | 0.00 | 0.00 | 0.00 | 59 | 1005.2 |
| 20260504180040 | 73 | 246 | 2.0 | 8.0 | 0.00 | 0.00 | 0.00 | 61 | 1005.2 |
| 20260504174529 | 72 | 152 | 1.0 | 8.0 | 0.00 | 0.00 | 0.00 | 63 | 1005.4 |
| 20260504173035 | 71 | 172 | 2.0 | 4.0 | 0.00 | 0.00 | 0.00 | 63 | 1005.5 |
| 20260504171530 | 69 | 142 | 2.0 | 5.0 | 0.00 | 0.00 | 0.00 | 67 | 1006.1 |
| 20260504081529 | 58 | 0 | 0.0 | 0.0 | 0.00 | 0.01 | 0.00 | 81 | 1008.4 |
| 20260504050120 | 62 | 131 | 1.0 | 5.0 | 0.00 | 0.01 | 0.00 | 69 | 1008.0 |
| 20260504044532 | 62 | 275 | 1.0 | 4.0 | 0.00 | 0.01 | 0.01 | 68 | 1008.5 |
| 20260504043031 | 62 | 147 | 1.0 | 3.0 | 0.00 | 0.01 | 0.01 | 68 | 1008.9 |
| 20260504041528 | 62 | 257 | 1.0 | 6.0 | 0.00 | 0.01 | 0.01 | 68 | 1009.1 |
| 20260504040032 | 62 | 175 | 1.0 | 5.0 | 0.00 | 0.01 | 0.01 | 68 | 1009.2 |
| 20260504034539 | 61 | 185 | 1.0 | 3.0 | 0.00 | 0.01 | 0.01 | 68 | 1009.3 |
| 20260504033110 | 61 | 213 | 1.0 | 4.0 | 0.00 | 0.01 | 0.01 | 67 | 1009.4 |
| 20260504033031 | 61 | 213 | 1.0 | 4.0 | 0.00 | 0.01 | 0.01 | 67 | 1009.4 |
| 20260504031530 | 62 | 171 | 1.0 | 4.0 | 0.00 | 0.01 | 0.01 | 66 | 1009.4 |
| 20260504030054 | 62 | 147 | 1.0 | 4.0 | 0.00 | 0.01 | 0.01 | 65 | 1009.5 |
| 20260504024530 | 63 | 192 | 1.0 | 4.0 | 0.00 | 0.01 | 0.01 | 63 | 1009.5 |
| 20260504023110 | 63 | 154 | 1.0 | 3.0 | 0.00 | 0.01 | 0.01 | 62 | 1009.6 |
| 20260504023028 | 63 | 154 | 1.0 | 3.0 | 0.00 | 0.01 | 0.01 | 62 | 1009.6 |
| 20260504021532 | 64 | 193 | 2.0 | 6.0 | 0.00 | 0.01 | 0.01 | 60 | 1009.4 |
| 20260504020035 | 65 | 174 | 2.0 | 7.0 | 0.00 | 0.01 | 0.01 | 58 | 1009.2 |
| 20260504014528 | 65 | 169 | 2.0 | 6.0 | 0.00 | 0.01 | 0.01 | 56 | 1009.2 |
| 20260504013028 | 66 | 194 | 2.0 | 4.0 | 0.00 | 0.01 | 0.01 | 55 | 1009.1 |
| 20260504011530 | 67 | 165 | 2.0 | 7.0 | 0.00 | 0.01 | 0.01 | 54 | 1009.0 |
| 20260504010027 | 68 | 190 | 2.0 | 5.0 | 0.00 | 0.01 | 0.01 | 53 | 1009.0 |
| 20260504004529 | 69 | 147 | 1.0 | 5.0 | 0.00 | 0.01 | 0.01 | 51 | 1009.0 |
| 20260504003031 | 71 | 198 | 2.0 | 6.0 | 0.00 | 0.01 | 0.01 | 49 | 1009.0 |
| 20260504001530 | 73 | 164 | 2.0 | 6.0 | 0.00 | 0.01 | 0.01 | 47 | 1009.2 |
| 20260504000030 | 74 | 166 | 2.0 | 7.0 | 0.00 | 0.01 | 0.01 | 45 | 1009.0 |
| 20260503234625 | 74 | 146 | 2.0 | 9.0 | 0.00 | 0.01 | 0.01 | 44 | 1009.2 |
| 20260503234533 | 74 | 146 | 2.0 | 9.0 | 0.00 | 0.01 | 0.01 | 44 | 1009.2 |
| 20260503233029 | 75 | 149 | 4.0 | 11.0 | 0.00 | 0.01 | 0.01 | 42 | 1009.3 |